createdAt,value
2022-07-30T00:03:35.057Z,24.90
2022-07-30T00:08:37.883Z,24.80
2022-07-30T00:13:40.844Z,24.80
2022-07-30T00:18:43.877Z,24.70
2022-07-30T00:24:01.237Z,24.60
2022-07-30T00:29:06.169Z,24.50
2022-07-30T00:34:09.069Z,24.40
2022-07-30T00:39:11.935Z,24.40
2022-07-30T00:44:15.099Z,24.30
2022-07-30T00:49:17.989Z,24.20
2022-07-30T00:54:21.541Z,24.10
2022-07-30T00:59:27.721Z,24.10
2022-07-30T01:04:31.143Z,24.10
2022-07-30T01:09:33.947Z,24.10
2022-07-30T01:14:38.218Z,24.00
2022-07-30T01:19:55.297Z,23.80
2022-07-30T01:25:11.103Z,23.70
2022-07-30T01:30:20.306Z,23.60
2022-07-30T01:35:26.167Z,23.50
2022-07-30T01:40:29.729Z,23.30
2022-07-30T01:45:41.373Z,23.30
2022-07-30T01:50:49.283Z,23.30
2022-07-30T01:55:55.176Z,23.40
2022-07-30T02:00:58.962Z,23.50
2022-07-30T02:06:23.248Z,23.60
2022-07-30T02:11:44.901Z,23.70
2022-07-30T02:16:54.400Z,23.80
2022-07-30T02:22:12.760Z,23.80
2022-07-30T02:27:30.627Z,23.80
2022-07-30T02:32:41.005Z,23.80
2022-07-30T02:37:48.433Z,23.80
2022-07-30T02:42:54.073Z,23.80
2022-07-30T02:48:02.503Z,23.80
2022-07-30T02:53:10.975Z,23.70
2022-07-30T02:58:23.373Z,23.70
2022-07-30T03:03:29.452Z,23.60
2022-07-30T03:08:34.386Z,23.60
2022-07-30T03:13:37.261Z,23.50
2022-07-30T03:18:43.125Z,23.50
2022-07-30T03:23:47.974Z,23.40
2022-07-30T03:28:51.345Z,23.40
2022-07-30T03:33:54.637Z,23.30
2022-07-30T03:38:57.811Z,23.30
2022-07-30T03:44:01.563Z,23.10
2022-07-30T03:49:06.147Z,23.00
2022-07-30T03:54:13.819Z,22.90
2022-07-30T03:59:17.112Z,22.90
2022-07-30T04:04:20.124Z,22.80
2022-07-30T04:09:23.578Z,22.90
2022-07-30T04:14:26.341Z,22.90
2022-07-30T04:19:40.132Z,22.90
2022-07-30T04:24:45.295Z,22.90
2022-07-30T04:29:48.349Z,22.90
2022-07-30T04:34:54.391Z,22.90
2022-07-30T04:40:01.078Z,22.90
2022-07-30T04:45:04.709Z,23.00
2022-07-30T04:50:08.996Z,23.10
2022-07-30T04:55:14.309Z,23.20
2022-07-30T05:00:18.113Z,23.30
2022-07-30T05:05:21.882Z,23.30
2022-07-30T05:10:25.634Z,23.40
2022-07-30T05:15:35.966Z,23.40
2022-07-30T05:20:40.684Z,23.50
2022-07-30T05:25:43.924Z,23.60
2022-07-30T05:30:46.683Z,23.80
2022-07-30T05:35:51.267Z,23.80
2022-07-30T05:40:54.150Z,23.90
2022-07-30T05:45:57.053Z,24.10
2022-07-30T05:50:59.784Z,24.20
2022-07-30T05:56:03.138Z,24.30
2022-07-30T06:01:06.057Z,24.30
2022-07-30T06:06:09.001Z,24.30
2022-07-30T06:11:11.892Z,24.30
2022-07-30T06:16:15.203Z,24.40
2022-07-30T06:21:18.074Z,24.50
2022-07-30T06:26:21.061Z,24.60
2022-07-30T06:31:24.342Z,24.70
2022-07-30T06:36:27.176Z,24.80
2022-07-30T06:41:30.050Z,25.00
2022-07-30T06:46:32.936Z,25.00
2022-07-30T06:51:35.709Z,25.10
2022-07-30T06:56:38.515Z,25.20
2022-07-30T07:01:41.561Z,25.20
2022-07-30T07:06:45.161Z,25.30
2022-07-30T07:11:48.125Z,25.50
2022-07-30T07:16:51.277Z,25.60
2022-07-30T07:21:54.196Z,25.80
2022-07-30T07:26:57.130Z,25.90
2022-07-30T07:32:06.003Z,26.00
2022-07-30T07:37:11.022Z,26.00
2022-07-30T07:42:13.934Z,26.00
2022-07-30T07:47:17.040Z,26.00
2022-07-30T07:52:19.997Z,26.10
2022-07-30T07:57:22.929Z,26.30
2022-07-30T08:02:26.617Z,26.30
2022-07-30T08:07:30.797Z,26.30
2022-07-30T08:12:34.311Z,26.10
2022-07-30T08:17:47.438Z,25.80
2022-07-30T08:22:50.838Z,25.60
2022-07-30T08:27:53.917Z,25.30
2022-07-30T08:32:59.257Z,25.00
2022-07-30T08:38:02.051Z,24.70
2022-07-30T08:43:07.431Z,24.60
2022-07-30T08:48:16.462Z,24.50
2022-07-30T08:53:19.922Z,24.40
2022-07-30T08:58:35.210Z,24.30
2022-07-30T09:03:44.059Z,24.20
2022-07-30T09:08:48.101Z,24.10
2022-07-30T09:13:51.122Z,24.20
2022-07-30T09:18:54.940Z,24.20
2022-07-30T09:24:05.868Z,24.30
2022-07-30T09:29:22.183Z,24.30
2022-07-30T09:34:28.442Z,24.40
2022-07-30T09:39:42.499Z,24.50
2022-07-30T09:45:16.183Z,24.40
2022-07-30T09:50:30.024Z,24.20
2022-07-30T09:55:36.234Z,23.90
2022-07-30T10:00:45.393Z,23.60
2022-07-30T10:06:00.401Z,23.40
2022-07-30T10:11:04.984Z,23.00
2022-07-30T10:16:11.824Z,22.60
2022-07-30T10:21:16.811Z,22.30
2022-07-30T10:26:21.153Z,21.90
2022-07-30T10:31:48.519Z,21.40
2022-07-30T10:37:04.637Z,21.10
2022-07-30T10:42:46.327Z,20.90
2022-07-30T10:47:52.346Z,20.80
2022-07-30T10:53:01.299Z,20.70
2022-07-30T10:58:15.548Z,20.70
2022-07-30T11:03:41.513Z,20.70
2022-07-30T11:08:50.562Z,20.80
2022-07-30T11:13:59.033Z,20.90
2022-07-30T11:19:53.353Z,20.90
2022-07-30T11:24:49.023Z,21.00
2022-07-30T11:29:52.020Z,21.10
2022-07-30T11:35:20.318Z,21.20
2022-07-30T11:40:35.304Z,21.40
2022-07-30T11:45:38.289Z,21.60
2022-07-30T11:50:46.100Z,21.80
2022-07-30T11:56:01.342Z,22.00
2022-07-30T12:01:17.262Z,22.20
2022-07-30T12:06:20.632Z,22.30
2022-07-30T12:11:23.347Z,22.50
2022-07-30T12:16:28.163Z,22.60
2022-07-30T12:21:31.366Z,22.70
2022-07-30T12:26:35.227Z,22.70
2022-07-30T12:31:40.288Z,22.70
2022-07-30T12:36:43.108Z,22.80
2022-07-30T12:41:49.478Z,22.70
2022-07-30T12:46:52.639Z,22.90
2022-07-30T12:52:00.311Z,22.90
2022-07-30T12:57:06.315Z,22.80
2022-07-30T13:02:09.695Z,22.70
2022-07-30T13:07:13.055Z,22.60
2022-07-30T13:12:16.732Z,22.50
2022-07-30T13:17:19.514Z,22.40
2022-07-30T13:22:22.468Z,22.30
2022-07-30T13:27:25.587Z,22.30
2022-07-30T13:32:28.412Z,22.40
2022-07-30T13:37:38.499Z,22.50
2022-07-30T13:42:41.559Z,22.50
2022-07-30T13:47:44.371Z,22.30
2022-07-30T13:52:47.400Z,22.30
2022-07-30T13:57:50.838Z,22.30
2022-07-30T14:02:54.605Z,22.30
2022-07-30T14:07:57.883Z,22.30
2022-07-30T14:13:01.362Z,22.30
2022-07-30T14:18:04.441Z,22.30
2022-07-30T14:23:07.412Z,22.30
2022-07-30T14:28:10.570Z,22.40
2022-07-30T14:33:13.411Z,22.60
2022-07-30T14:38:16.510Z,22.80
2022-07-30T14:43:19.741Z,23.20
2022-07-30T14:48:22.539Z,23.20
2022-07-30T14:53:25.381Z,23.30
2022-07-30T14:58:28.372Z,23.40
2022-07-30T15:03:31.139Z,23.50
2022-07-30T15:08:33.897Z,23.50
2022-07-30T15:13:38.643Z,23.60
2022-07-30T15:18:52.654Z,23.70
2022-07-30T15:23:55.509Z,23.90
2022-07-30T15:28:58.512Z,23.90
2022-07-30T15:34:01.294Z,23.80
2022-07-30T15:39:04.126Z,23.70
2022-07-30T15:44:06.924Z,23.70
2022-07-30T15:49:10.191Z,23.80
2022-07-30T15:54:14.097Z,23.90
2022-07-30T15:59:17.270Z,23.80
2022-07-30T16:04:20.228Z,23.90
2022-07-30T16:09:24.143Z,24.10
2022-07-30T16:14:27.495Z,24.20
2022-07-30T16:19:30.295Z,24.10
2022-07-30T16:24:33.494Z,24.00
2022-07-30T16:29:36.335Z,24.30
2022-07-30T16:34:39.519Z,24.60
2022-07-30T16:39:42.418Z,24.80
2022-07-30T16:44:45.326Z,25.10
2022-07-30T16:49:48.194Z,25.10
2022-07-30T16:54:50.984Z,24.80
2022-07-30T16:59:53.863Z,24.50
2022-07-30T17:04:56.625Z,24.20
2022-07-30T17:09:59.449Z,23.90
2022-07-30T17:15:02.839Z,23.60
2022-07-30T17:20:06.799Z,23.50
2022-07-30T17:25:10.384Z,23.40
2022-07-30T17:30:13.478Z,23.30
2022-07-30T17:35:16.609Z,23.30
2022-07-30T17:40:30.783Z,23.30
2022-07-30T17:45:36.954Z,23.20
2022-07-30T17:50:40.086Z,23.20
2022-07-30T17:55:57.305Z,23.10
2022-07-30T18:01:02.895Z,23.00
2022-07-30T18:06:06.206Z,22.90
2022-07-30T18:11:13.516Z,22.90
2022-07-30T18:16:16.709Z,22.80
2022-07-30T18:21:19.473Z,22.80
2022-07-30T18:26:22.706Z,22.80
2022-07-30T18:31:25.485Z,22.70
2022-07-30T18:36:28.746Z,22.70
2022-07-30T18:41:31.645Z,22.60
2022-07-30T18:46:34.962Z,22.60
2022-07-30T18:51:38.256Z,22.60
2022-07-30T18:56:41.086Z,22.50
2022-07-30T19:01:44.219Z,22.40
2022-07-30T19:06:47.498Z,22.30
2022-07-30T19:11:50.374Z,22.20
2022-07-30T19:16:53.816Z,22.20
2022-07-30T19:22:02.381Z,22.20
2022-07-30T19:27:09.835Z,22.20
2022-07-30T19:32:15.181Z,22.10
2022-07-30T19:37:19.363Z,22.10
2022-07-30T19:42:22.249Z,22.10
2022-07-30T19:47:26.264Z,22.10
2022-07-30T19:52:29.347Z,22.10
2022-07-30T19:57:53.014Z,22.00
2022-07-30T20:02:55.346Z,22.00
2022-07-30T20:08:00.686Z,21.90
2022-07-30T20:13:03.526Z,21.80
2022-07-30T20:18:10.353Z,21.80
2022-07-30T20:23:13.221Z,21.70
2022-07-30T20:28:16.239Z,21.70
2022-07-30T20:33:22.567Z,21.70
2022-07-30T20:38:40.399Z,21.60
2022-07-30T20:43:46.172Z,21.50
2022-07-30T20:48:55.836Z,21.50
2022-07-30T20:53:59.301Z,21.40
2022-07-30T20:59:02.405Z,21.40
2022-07-30T21:04:05.866Z,21.40
2022-07-30T21:09:14.174Z,21.30
2022-07-30T21:14:17.643Z,21.20
2022-07-30T21:19:21.218Z,21.20
2022-07-30T21:24:25.571Z,21.10
2022-07-30T21:29:29.262Z,21.10
2022-07-30T21:39:55.464Z,20.90
2022-07-30T21:44:59.502Z,20.90
2022-07-30T21:50:02.525Z,20.80
2022-07-30T21:55:06.258Z,20.80
2022-07-30T22:00:21.969Z,20.70
2022-07-30T22:05:38.861Z,20.70
2022-07-30T22:10:45.028Z,20.60
2022-07-30T22:15:50.054Z,20.60
2022-07-30T22:20:54.197Z,20.50
2022-07-30T22:26:00.172Z,20.50
2022-07-30T22:31:05.642Z,20.50
2022-07-30T22:36:09.853Z,20.50
2022-07-30T22:41:14.608Z,20.50
2022-07-30T22:46:30.213Z,20.40
2022-07-30T22:51:59.306Z,20.40
2022-07-30T22:56:56.910Z,20.30
2022-07-30T23:02:06.931Z,20.30
2022-07-30T23:07:19.085Z,20.20
2022-07-30T23:12:22.329Z,20.20
2022-07-30T23:12:31.193Z,21.00
2022-07-30T23:17:25.815Z,20.10
2022-07-30T23:22:29.728Z,20.10
2022-07-30T23:27:32.712Z,20.00
2022-07-30T23:32:36.758Z,20.00
2022-07-30T23:37:48.387Z,20.00
2022-07-30T23:42:52.606Z,19.90
2022-07-30T23:48:02.464Z,19.90
2022-07-30T23:53:06.121Z,19.80
2022-07-30T23:58:09.612Z,19.80
